Time;durP1;ratioP1;P1;durP2;ratioP2;P2;SDS_P1;SDS_P2;PMS_P1;PMS_P2;Temp;Humidity;BMP_temperature;BMP_pressure;BME280_temperature;BME280_humidity;BME280_pressure;Samples;Min_cycle;Max_cycle;Signal;HPM_P1;HPM_P2
2021/12/08 00:00:55;;;;;;;421.38;169.25;;;-0.90;99.90;;;;;;5036213;28;20025;-51
2021/12/08 00:03:23;;;;;;;530.85;212.18;;;-0.90;99.90;;;;;;5036194;28;20041;-51
2021/12/08 00:05:50;;;;;;;482.10;187.40;;;-0.80;99.90;;;;;;5036042;28;20076;-51
2021/12/08 00:08:19;;;;;;;508.58;201.68;;;-0.80;99.90;;;;;;5035994;28;20025;-51
2021/12/08 00:13:35;;;;;;;525.85;211.93;;;-0.90;99.90;;;;;;5035749;28;20029;-51
2021/12/08 00:16:07;;;;;;;562.88;232.07;;;-0.90;99.90;;;;;;5035664;28;20093;-51
2021/12/08 00:18:34;;;;;;;584.22;247.10;;;-0.90;99.90;;;;;;5035654;28;20049;-51
2021/12/08 00:21:02;;;;;;;325.98;134.30;;;-0.90;99.90;;;;;;5035730;28;20523;-51
2021/12/08 00:23:29;;;;;;;225.55;97.28;;;-0.90;99.90;;;;;;5035794;28;20030;-51
2021/12/08 00:25:56;;;;;;;297.95;122.68;;;-1.00;99.90;;;;;;5035519;28;20032;-51
2021/12/08 00:28:22;;;;;;;333.20;139.93;;;-1.10;99.90;;;;;;5035680;28;20034;-51
2021/12/08 00:30:54;;;;;;;292.13;123.75;;;-1.10;99.90;;;;;;5035559;28;20033;-51
2021/12/08 00:33:21;;;;;;;340.25;135.88;;;-1.10;99.90;;;;;;5035567;28;20037;-51
2021/12/08 00:35:49;;;;;;;452.10;171.95;;;-1.10;99.90;;;;;;5034288;28;20037;-51
2021/12/08 00:38:19;;;;;;;455.58;172.23;;;-1.20;99.90;;;;;;5035781;28;20029;-51
2021/12/08 00:40:51;;;;;;;464.50;170.77;;;-1.30;99.90;;;;;;5035435;28;20091;-51
2021/12/08 00:43:18;;;;;;;513.63;192.07;;;-1.30;99.90;;;;;;5035567;28;20032;-51
2021/12/08 00:45:45;;;;;;;475.23;184.43;;;-1.30;99.90;;;;;;5034888;28;20478;-51
2021/12/08 00:48:11;;;;;;;460.58;181.15;;;-1.30;99.90;;;;;;5035198;28;20116;-51
2021/12/08 00:50:40;;;;;;;543.63;233.18;;;-1.40;99.90;;;;;;5035224;28;20025;-51
2021/12/08 00:53:06;;;;;;;418.73;175.57;;;-1.40;99.90;;;;;;5035305;28;20033;-51
2021/12/08 00:55:33;;;;;;;345.85;147.07;;;-1.50;99.90;;;;;;5035078;28;20470;-51
2021/12/08 00:57:59;;;;;;;332.05;135.88;;;-1.40;99.90;;;;;;5035260;28;20432;-51
2021/12/08 01:00:44;;;;;;;218.35;96.18;;;-1.50;99.90;;;;;;5034987;28;20072;-51
2021/12/08 01:03:11;;;;;;;259.58;112.63;;;-1.50;99.90;;;;;;5034900;28;20395;-51
2021/12/08 01:05:41;;;;;;;332.90;133.38;;;-1.40;99.90;;;;;;5034946;28;20037;-51
2021/12/08 01:08:08;;;;;;;340.23;143.03;;;-1.50;99.90;;;;;;5034817;28;20089;-52
2021/12/08 01:10:35;;;;;;;451.50;176.82;;;-1.40;99.90;;;;;;5035235;28;20130;-51
2021/12/08 01:13:07;;;;;;;376.00;152.38;;;-1.30;99.90;;;;;;5034936;28;20068;-51
2021/12/08 01:15:35;;;;;;;392.88;167.40;;;-1.30;99.90;;;;;;5034616;28;20151;-51
2021/12/08 01:18:01;;;;;;;328.35;138.70;;;-1.30;99.90;;;;;;5035027;28;20040;-52
2021/12/08 01:20:28;;;;;;;279.98;122.32;;;-1.40;99.90;;;;;;5034754;28;20026;-51
2021/12/08 01:22:54;;;;;;;254.63;108.53;;;-1.50;99.90;;;;;;5034748;28;20025;-51
2021/12/08 01:25:20;;;;;;;266.30;113.15;;;-1.50;99.90;;;;;;5034864;28;20029;-51
2021/12/08 01:27:46;;;;;;;271.80;117.82;;;-1.50;99.90;;;;;;5034861;28;20026;-51
2021/12/08 01:30:12;;;;;;;255.40;109.20;;;-1.60;99.90;;;;;;5034639;28;20531;-51
2021/12/08 01:32:38;;;;;;;295.20;126.65;;;-1.50;99.90;;;;;;5034616;28;20041;-51
2021/12/08 01:35:05;;;;;;;343.23;139.65;;;-1.40;99.90;;;;;;5034905;28;20095;-51
2021/12/08 01:37:32;;;;;;;316.35;128.60;;;-1.40;99.90;;;;;;5034639;28;20032;-51
2021/12/08 01:39:58;;;;;;;234.68;104.30;;;-1.30;99.90;;;;;;5035089;28;20025;-51
2021/12/08 01:42:35;;;;;;;241.82;108.10;;;-1.40;99.90;;;;;;5034427;28;20038;-51
2021/12/08 01:47:49;;;;;;;251.27;113.78;;;-1.30;99.90;;;;;;5034655;28;20491;-51
2021/12/08 01:50:14;;;;;;;240.85;111.53;;;-1.30;99.90;;;;;;5034586;28;20076;-52
2021/12/08 01:52:40;;;;;;;245.23;109.20;;;-1.30;99.90;;;;;;5034501;28;20501;-52
2021/12/08 01:55:09;;;;;;;230.48;102.85;;;-1.40;99.90;;;;;;5034509;28;20032;-51
2021/12/08 01:57:39;;;;;;;207.63;95.05;;;-1.20;99.90;;;;;;5034709;28;20035;-51
2021/12/08 02:00:13;;;;;;;222.85;97.38;;;-1.10;99.90;;;;;;5038332;28;20112;-51
2021/12/08 02:02:39;;;;;;;202.98;93.80;;;-1.10;99.90;;;;;;5038335;28;20060;-51
2021/12/08 02:05:05;;;;;;;199.45;89.68;;;-1.20;99.90;;;;;;5038210;28;20061;-51
2021/12/08 02:07:32;;;;;;;231.60;101.80;;;-1.40;99.90;;;;;;5038253;28;20029;-51
2021/12/08 02:09:57;;;;;;;232.43;100.65;;;-1.40;99.90;;;;;;5038087;28;20025;-51
2021/12/08 02:12:24;;;;;;;277.50;118.35;;;-1.40;99.90;;;;;;5037970;28;20044;-52
2021/12/08 02:14:51;;;;;;;260.92;113.55;;;-1.40;99.90;;;;;;5038082;28;20060;-52
2021/12/08 02:17:17;;;;;;;232.88;100.10;;;-1.30;99.90;;;;;;5038025;28;20371;-52
2021/12/08 02:19:42;;;;;;;209.57;91.47;;;-1.20;99.90;;;;;;5038056;28;20040;-51
2021/12/08 02:22:08;;;;;;;201.82;89.85;;;-1.20;99.90;;;;;;5038053;28;20129;-51
2021/12/08 02:24:34;;;;;;;192.93;85.65;;;-1.20;99.90;;;;;;5037999;28;20079;-51
2021/12/08 02:27:00;;;;;;;220.68;99.68;;;-1.30;99.90;;;;;;5037948;28;20487;-51
2021/12/08 02:29:35;;;;;;;229.75;102.95;;;-1.40;99.90;;;;;;5037739;28;20037;-51
2021/12/08 02:32:10;;;;;;;251.02;108.45;;;-1.40;99.90;;;;;;5037870;28;20033;-52
2021/12/08 02:48:34;;;;;;;255.93;108.97;;;-1.30;99.90;;;;;;5037207;28;20462;-52
2021/12/08 02:51:01;;;;;;;249.35;112.60;;;-1.30;99.90;;;;;;5037542;28;20034;-52
2021/12/08 02:53:27;;;;;;;234.07;109.15;;;-1.30;99.90;;;;;;5037457;28;20075;-52
2021/12/08 02:55:53;;;;;;;245.93;116.07;;;-1.30;99.90;;;;;;5037177;28;20048;-52
2021/12/08 02:58:19;;;;;;;241.00;109.53;;;-1.30;99.90;;;;;;5037441;28;20056;-52
2021/12/08 03:00:57;;;;;;;208.88;98.43;;;-1.50;99.90;;;;;;5037180;28;20018;-52
2021/12/08 03:03:24;;;;;;;185.48;83.80;;;-1.60;99.90;;;;;;5037188;28;20058;-52
2021/12/08 03:05:50;;;;;;;189.18;83.93;;;-1.60;99.90;;;;;;5037234;28;20052;-52
2021/12/08 03:08:16;;;;;;;182.93;85.68;;;-1.60;99.90;;;;;;5036924;28;20018;-51
2021/12/08 03:10:45;;;;;;;188.60;88.53;;;-1.60;99.90;;;;;;5036773;28;20049;-51
2021/12/08 03:13:12;;;;;;;193.15;88.32;;;-1.50;99.90;;;;;;5036970;28;20091;-52
2021/12/08 03:15:40;;;;;;;186.30;87.93;;;-1.60;99.90;;;;;;5036797;28;20103;-51
2021/12/08 03:18:06;;;;;;;193.70;87.32;;;-1.60;99.90;;;;;;5037064;28;20041;-52
2021/12/08 03:20:40;;;;;;;174.00;79.38;;;-1.60;99.90;;;;;;5035587;28;20033;-52
2021/12/08 03:23:12;;;;;;;156.25;72.43;;;-1.60;99.90;;;;;;5036847;28;20024;-52
2021/12/08 03:25:41;;;;;;;149.40;71.63;;;-1.60;99.90;;;;;;5036971;28;20040;-52
2021/12/08 03:28:21;;;;;;;144.45;67.38;;;-1.60;99.90;;;;;;5036681;28;20482;-52
2021/12/08 03:31:12;;;;;;;161.75;72.57;;;-1.50;99.90;;;;;;5036795;28;20112;-52
2021/12/08 03:33:38;;;;;;;157.52;69.43;;;-1.40;99.90;;;;;;5036625;28;20029;-51
2021/12/08 03:36:04;;;;;;;138.30;64.75;;;-1.50;99.90;;;;;;5036750;28;20112;-51
2021/12/08 03:38:31;;;;;;;137.75;65.20;;;-1.70;99.90;;;;;;5036430;28;20029;-51
2021/12/08 03:40:59;;;;;;;135.85;60.95;;;-1.80;99.90;;;;;;5036562;28;20033;-52
2021/12/08 03:43:25;;;;;;;133.85;60.63;;;-1.90;99.90;;;;;;5036405;28;20029;-51
2021/12/08 03:45:53;;;;;;;144.13;64.47;;;-1.90;99.90;;;;;;5036314;28;20538;-51
2021/12/08 03:48:27;;;;;;;133.80;63.22;;;-1.90;99.90;;;;;;5036498;28;20037;-52
2021/12/08 03:50:55;;;;;;;158.15;68.63;;;-1.80;99.90;;;;;;5036324;28;20083;-52
2021/12/08 03:53:21;;;;;;;142.23;68.10;;;-1.80;99.90;;;;;;5036306;28;20033;-52
2021/12/08 03:55:49;;;;;;;150.48;68.63;;;-1.70;99.90;;;;;;5036675;28;20112;-52
2021/12/08 03:58:16;;;;;;;153.95;67.03;;;-1.60;99.90;;;;;;5036312;28;20104;-51
2021/12/08 04:00:45;;;;;;;150.00;68.75;;;-1.60;99.90;;;;;;5036106;28;20036;-52
2021/12/08 04:03:12;;;;;;;146.75;65.05;;;-1.80;99.90;;;;;;5036089;28;20037;-51
2021/12/08 04:08:18;;;;;;;124.10;56.55;;;-1.90;99.90;;;;;;5035953;28;20037;-51
2021/12/08 04:10:51;;;;;;;125.97;54.97;;;-1.90;99.90;;;;;;5036052;28;20044;-52
2021/12/08 04:13:23;;;;;;;114.40;54.15;;;-1.90;99.90;;;;;;5035800;28;20061;-51
2021/12/08 04:15:49;;;;;;;151.88;67.13;;;-2.00;99.90;;;;;;5035648;28;20540;-51
2021/12/08 04:18:15;;;;;;;201.45;82.00;;;-2.10;99.90;;;;;;5035980;28;20025;-52
2021/12/08 04:20:45;;;;;;;193.15;78.05;;;-1.90;99.90;;;;;;5034932;28;20478;-52
2021/12/08 04:23:14;;;;;;;204.23;79.75;;;-1.90;99.90;;;;;;5035910;28;20042;-52
2021/12/08 04:25:45;;;;;;;162.23;66.43;;;-1.90;99.90;;;;;;5035665;28;20041;-51
2021/12/08 04:28:14;;;;;;;132.60;58.72;;;-1.80;99.90;;;;;;5035546;28;20041;-51
2021/12/08 04:30:46;;;;;;;118.43;53.20;;;-1.90;99.90;;;;;;5035710;28;20502;-51
2021/12/08 04:33:13;;;;;;;116.43;52.75;;;-2.00;99.90;;;;;;5035716;28;20029;-52
2021/12/08 04:35:40;;;;;;;116.20;53.45;;;-2.00;99.90;;;;;;5035389;28;20057;-52
2021/12/08 04:38:12;;;;;;;119.10;51.97;;;-2.10;99.90;;;;;;5035494;28;20030;-51
2021/12/08 04:41:19;;;;;;;124.30;56.75;;;-2.10;99.90;;;;;;5035363;28;20029;-52
2021/12/08 04:46:33;;;;;;;139.27;59.63;;;-2.20;99.90;;;;;;5035417;28;20034;-52
2021/12/08 04:51:51;;;;;;;182.48;72.50;;;-2.10;99.90;;;;;;5035355;28;20414;-51
2021/12/08 05:03:23;;;;;;;240.65;85.40;;;-2.00;99.90;;;;;;5034997;28;20025;-51
2021/12/08 05:08:42;;;;;;;246.38;90.55;;;-1.90;99.90;;;;;;5034894;28;20065;-52
2021/12/08 05:11:17;;;;;;;224.32;84.85;;;-1.90;99.90;;;;;;5034843;28;20439;-51
2021/12/08 05:13:46;;;;;;;219.60;82.05;;;-1.90;99.90;;;;;;5034949;28;20040;-52
2021/12/08 05:16:13;;;;;;;219.38;86.68;;;-1.90;99.90;;;;;;5034691;28;20046;-52
2021/12/08 05:18:44;;;;;;;229.80;87.57;;;-1.90;99.90;;;;;;5034805;28;20026;-52
2021/12/08 05:21:37;;;;;;;251.68;93.40;;;-1.90;99.90;;;;;;5034792;28;20051;-52
2021/12/08 05:24:16;;;;;;;259.45;93.60;;;-2.00;99.90;;;;;;5034775;28;20029;-51
2021/12/08 05:26:58;;;;;;;262.63;95.55;;;-2.00;99.90;;;;;;5034767;28;20037;-51
2021/12/08 05:29:40;;;;;;;255.85;92.55;;;-2.00;99.90;;;;;;5034656;28;20045;-52
2021/12/08 05:32:07;;;;;;;227.52;88.78;;;-2.00;99.90;;;;;;5035631;28;20040;-52
2021/12/08 05:34:34;;;;;;;172.95;70.95;;;-2.00;99.90;;;;;;5039051;28;20041;-52
2021/12/08 05:37:01;;;;;;;163.25;66.70;;;-2.10;99.90;;;;;;5038797;28;20439;-51
2021/12/08 05:39:29;;;;;;;173.55;70.20;;;-2.10;99.90;;;;;;5038485;28;20096;-51
2021/12/08 05:42:04;;;;;;;161.50;64.22;;;-2.20;99.90;;;;;;5039205;28;20017;-51
2021/12/08 05:44:30;;;;;;;154.52;60.67;;;-2.20;99.90;;;;;;5037266;28;20036;-51
2021/12/08 05:46:59;;;;;;;185.77;75.70;;;-2.10;99.90;;;;;;5038741;28;20082;-51
2021/12/08 05:49:26;;;;;;;212.02;87.63;;;-2.10;99.90;;;;;;5038563;28;20386;-51
2021/12/08 05:51:54;;;;;;;221.10;91.80;;;-2.00;99.90;;;;;;5038454;28;20049;-51
2021/12/08 05:54:25;;;;;;;232.85;92.93;;;-2.10;99.90;;;;;;5038495;28;20032;-51
2021/12/08 05:56:54;;;;;;;;;;;-2.10;99.90;;;;;;5038788;28;20041;-52
2021/12/08 05:59:22;;;;;;;248.98;96.75;;;-2.10;99.90;;;;;;5038360;28;19909;-51
2021/12/08 06:01:56;;;;;;;293.98;115.00;;;-2.10;99.90;;;;;;5038557;28;20053;-51
2021/12/08 06:04:25;;;;;;;352.35;128.75;;;-2.10;99.90;;;;;;5038259;28;20033;-51
2021/12/08 06:06:52;;;;;;;359.27;130.98;;;-2.10;99.90;;;;;;5038027;28;20470;-51
2021/12/08 06:09:19;;;;;;;381.25;136.57;;;-2.10;99.90;;;;;;5038151;28;20034;-52
2021/12/08 06:11:47;;;;;;;404.33;136.85;;;-2.10;99.90;;;;;;5038217;28;20042;-51
2021/12/08 06:14:13;;;;;;;458.73;143.68;;;-2.30;99.90;;;;;;5037982;28;20084;-51
2021/12/08 06:16:42;;;;;;;631.00;190.18;;;-2.30;99.90;;;;;;5037714;28;20069;-52
2021/12/08 06:19:09;;;;;;;684.42;210.20;;;-2.30;99.90;;;;;;5038088;28;20108;-51
2021/12/08 06:21:36;;;;;;;445.67;136.35;;;-2.30;99.90;;;;;;5034634;28;20021;-51
2021/12/08 06:24:06;;;;;;;396.08;123.60;;;-2.40;99.90;;;;;;5029323;28;20029;-51
2021/12/08 06:26:33;;;;;;;566.20;168.93;;;-2.40;99.90;;;;;;5027270;28;20041;-51
2021/12/08 06:28:59;;;;;;;508.40;161.40;;;-2.40;99.90;;;;;;5022921;28;20037;-52
2021/12/08 06:31:28;;;;;;;554.05;180.30;;;-2.30;99.90;;;;;;5033426;28;20071;-51
2021/12/08 06:33:55;;;;;;;508.33;170.15;;;-2.30;99.90;;;;;;5036063;28;20037;-51
2021/12/08 06:36:26;;;;;;;347.40;127.15;;;-2.30;99.90;;;;;;5029311;28;20072;-51
2021/12/08 06:38:52;;;;;;;327.77;126.75;;;-2.30;99.90;;;;;;5034366;28;20111;-52
2021/12/08 06:41:24;;;;;;;357.02;137.85;;;-2.30;99.90;;;;;;5038362;28;20029;-52
2021/12/08 06:44:00;;;;;;;327.38;131.00;;;-2.20;99.90;;;;;;5035059;28;20080;-51
2021/12/08 06:46:27;;;;;;;309.70;125.53;;;-2.20;99.90;;;;;;5032071;28;20032;-51
2021/12/08 06:48:56;;;;;;;237.25;100.95;;;-2.20;99.90;;;;;;5034089;28;20029;-51
2021/12/08 06:51:56;;;;;;;200.23;86.22;;;-2.10;99.90;;;;;;5035753;28;20336;-51
2021/12/08 06:54:26;;;;;;;;;;;-2.00;99.90;;;;;;5017560;28;20042;-55
2021/12/08 06:57:00;;;;;;;203.40;85.97;;;-2.00;99.90;;;;;;5022853;28;19920;-52
2021/12/08 06:59:34;;;;;;;219.35;95.68;;;-1.80;99.90;;;;;;5035584;28;20037;-52
2021/12/08 07:02:11;;;;;;;233.43;100.18;;;-1.60;99.90;;;;;;5037370;28;20085;-51
2021/12/08 07:07:25;;;;;;;305.98;125.15;;;-0.80;99.90;;;;;;5034118;28;20053;-53
2021/12/08 07:10:19;;;;;;;278.42;124.15;;;-0.30;99.90;;;;;;5037219;28;20029;-53
2021/12/08 07:12:51;;;;;;;291.98;127.55;;;0.20;99.90;;;;;;5034123;28;20065;-53
2021/12/08 07:15:30;;;;;;;285.40;122.85;;;1.20;99.90;;;;;;5037063;28;20049;-53
2021/12/08 07:18:03;;;;;;;875.58;164.23;;;2.10;99.90;;;;;;5036953;28;20466;-53
2021/12/08 07:20:43;;;;;;;411.45;166.35;;;2.60;99.90;;;;;;5035296;28;20061;-53
2021/12/08 07:23:28;;;;;;;451.15;200.75;;;3.40;99.90;;;;;;5037189;28;20034;-53
2021/12/08 07:26:02;;;;;;;459.23;216.80;;;3.60;99.90;;;;;;5035390;28;20075;-53
2021/12/08 07:28:29;;;;;;;421.27;194.57;;;3.90;99.90;;;;;;5034760;28;20049;-54
2021/12/08 07:31:06;;;;;;;401.27;189.63;;;4.70;99.90;;;;;;5035283;28;20036;-54
2021/12/08 07:33:32;;;;;;;381.23;175.90;;;5.90;99.90;;;;;;5034244;28;20451;-53
2021/12/08 07:36:05;;;;;;;382.35;177.10;;;7.00;99.60;;;;;;5036333;28;20038;-53
2021/12/08 07:38:32;;;;;;;362.20;168.35;;;7.50;96.50;;;;;;5032190;28;20049;-53
2021/12/08 07:41:15;;;;;;;353.48;164.98;;;7.90;97.00;;;;;;5036153;28;20021;-53
2021/12/08 07:43:51;;;;;;;333.48;157.25;;;7.60;96.60;;;;;;5036022;28;20473;-53
2021/12/08 07:46:24;;;;;;;296.38;143.05;;;8.30;93.80;;;;;;5032965;28;20033;-54
2021/12/08 07:49:00;;;;;;;299.45;140.65;;;7.90;94.70;;;;;;5016360;28;20116;-54
2021/12/08 07:51:34;;;;;;;314.60;144.88;;;7.40;95.60;;;;;;5027036;28;20034;-53
2021/12/08 07:54:03;;;;;;;302.88;138.32;;;8.90;92.80;;;;;;5034023;28;20029;-53
2021/12/08 07:56:33;;;;;;;303.35;142.18;;;10.00;82.50;;;;;;5024251;28;20514;-54
2021/12/08 07:59:04;;;;;;;288.17;135.82;;;10.20;76.10;;;;;;5015140;28;20596;-54
2021/12/08 08:01:36;;;;;;;294.10;139.60;;;9.20;90.60;;;;;;5015827;28;20384;-53
2021/12/08 08:04:06;;;;;;;303.27;145.60;;;9.80;84.80;;;;;;5015974;28;20026;-54
2021/12/08 08:06:35;;;;;;;291.17;142.10;;;10.10;76.40;;;;;;5016095;28;20403;-53
2021/12/08 08:09:05;;;;;;;303.85;145.73;;;10.30;74.50;;;;;;5026143;28;20384;-53
2021/12/08 08:11:36;;;;;;;309.90;150.55;;;10.50;75.90;;;;;;5035637;28;20036;-53
2021/12/08 08:14:03;;;;;;;331.40;158.85;;;9.60;84.60;;;;;;5031745;28;20391;-53
2021/12/08 08:16:33;;;;;;;323.42;157.57;;;9.90;81.60;;;;;;5025887;28;20061;-53
2021/12/08 08:19:08;;;;;;;346.17;171.57;;;10.20;85.20;;;;;;5020562;28;20030;-53
2021/12/08 08:21:40;;;;;;;358.65;175.73;;;9.80;88.40;;;;;;5025876;28;20026;-53
2021/12/08 08:24:07;;;;;;;334.45;168.23;;;9.40;88.40;;;;;;5015695;28;20022;-53
2021/12/08 08:26:35;;;;;;;325.13;162.75;;;10.20;85.60;;;;;;5000298;28;20440;-53
2021/12/08 08:29:06;;;;;;;298.35;157.18;;;9.20;88.80;;;;;;5027045;28;20029;-53
2021/12/08 08:31:39;;;;;;;342.50;172.70;;;9.80;85.80;;;;;;5034660;28;20509;-53
2021/12/08 08:34:05;;;;;;;340.40;170.45;;;9.80;90.30;;;;;;5035237;28;20025;-53
2021/12/08 08:36:37;;;;;;;340.45;173.02;;;9.70;84.40;;;;;;5035369;28;20524;-53
2021/12/08 08:39:12;;;;;;;335.67;176.25;;;9.50;92.10;;;;;;5035922;28;20128;-53
2021/12/08 08:41:43;;;;;;;321.70;165.20;;;10.00;83.40;;;;;;5016856;28;20037;-53
2021/12/08 08:44:11;;;;;;;;;;;10.10;84.30;;;;;;5027371;28;20029;-53
2021/12/08 08:46:40;;;;;;;271.20;140.98;;;10.50;84.50;;;;;;5025283;28;20032;-53
2021/12/08 08:49:13;;;;;;;267.02;133.65;;;10.60;76.20;;;;;;5027043;28;20041;-52
2021/12/08 08:51:47;;;;;;;257.70;133.50;;;10.40;79.90;;;;;;5028930;28;20089;-52
2021/12/08 08:54:20;;;;;;;249.13;128.05;;;11.20;80.10;;;;;;5020087;28;20029;-53
2021/12/08 08:56:55;;;;;;;236.07;121.35;;;11.80;72.90;;;;;;5024379;28;20391;-52
2021/12/08 08:59:30;;;;;;;227.80;113.80;;;11.90;68.80;;;;;;5026766;28;20048;-52
2021/12/08 09:01:58;;;;;;;223.88;117.80;;;11.70;76.70;;;;;;5016334;28;20033;-53
2021/12/08 09:04:30;;;;;;;216.38;115.22;;;12.20;65.20;;;;;;5028531;28;20452;-52
2021/12/08 09:07:02;;;;;;;220.43;115.53;;;11.30;69.30;;;;;;5024212;28;20030;-52
2021/12/08 09:09:35;;;;;;;219.82;116.93;;;10.70;73.90;;;;;;5029756;28;20037;-52
2021/12/08 09:12:10;;;;;;;217.50;119.45;;;10.90;81.90;;;;;;5034724;28;20033;-52
2021/12/08 09:14:41;;;;;;;213.38;113.53;;;10.40;83.90;;;;;;5034663;28;20040;-53
2021/12/08 09:17:23;;;;;;;211.13;112.82;;;11.10;82.40;;;;;;5039967;28;20132;-52
2021/12/08 09:20:05;;;;;;;233.05;119.57;;;12.00;71.60;;;;;;5038559;28;20030;-52
2021/12/08 09:22:54;;;;;;;221.10;119.47;;;11.60;67.60;;;;;;5038283;28;20120;-52
2021/12/08 09:25:37;;;;;;;234.95;119.78;;;11.10;74.10;;;;;;5042224;28;20554;-52
2021/12/08 09:28:08;;;;;;;215.40;113.35;;;11.30;86.70;;;;;;5038975;28;20026;-52
2021/12/08 09:30:41;;;;;;;201.95;104.78;;;12.20;72.00;;;;;;5051187;28;20033;-52
2021/12/08 09:33:15;;;;;;;200.02;106.22;;;12.20;67.80;;;;;;5048592;28;20036;-52
2021/12/08 09:35:51;;;;;;;202.32;106.95;;;11.40;72.70;;;;;;5030544;28;20037;-52
2021/12/08 09:38:21;;;;;;;187.85;99.45;;;11.80;73.30;;;;;;5043970;28;20110;-52
2021/12/08 09:40:58;;;;;;;197.93;100.18;;;11.80;72.40;;;;;;5037723;28;20103;-51
2021/12/08 09:43:29;;;;;;;163.57;91.00;;;12.00;76.80;;;;;;5053989;28;20393;-51
2021/12/08 09:46:00;;;;;;;162.57;84.32;;;12.90;66.50;;;;;;5054292;28;20029;-52
2021/12/08 09:48:29;;;;;;;;;;;12.70;65.90;;;;;;5049062;28;20029;-52
2021/12/08 09:51:00;;;;;;;161.52;80.95;;;13.60;58.20;;;;;;5053831;28;19920;-51
2021/12/08 09:53:27;;;;;;;146.52;76.15;;;13.10;58.90;;;;;;5054264;28;20029;-51
2021/12/08 09:55:54;;;;;;;147.00;78.53;;;13.40;59.50;;;;;;5038323;28;20029;-51
2021/12/08 09:58:20;;;;;;;133.23;71.15;;;13.00;59.40;;;;;;5034378;28;20056;-51
2021/12/08 10:00:49;;;;;;;119.05;65.78;;;13.60;61.00;;;;;;5034184;28;20060;-51
2021/12/08 10:03:16;;;;;;;118.72;64.65;;;14.20;58.00;;;;;;5047284;28;20057;-51
2021/12/08 10:05:43;;;;;;;118.20;64.75;;;13.70;60.70;;;;;;5050866;28;20024;-52
2021/12/08 10:08:10;;;;;;;115.28;62.67;;;13.90;56.70;;;;;;5049877;28;20053;-51
2021/12/08 10:10:41;;;;;;;121.88;63.00;;;14.00;58.10;;;;;;5033932;28;20025;-51
2021/12/08 10:13:08;;;;;;;115.38;62.58;;;14.90;53.00;;;;;;5034091;28;20025;-51
2021/12/08 10:15:34;;;;;;;114.00;58.30;;;14.50;52.40;;;;;;5033297;28;20121;-51
2021/12/08 10:18:01;;;;;;;103.13;55.63;;;14.20;54.30;;;;;;5034998;28;20148;-51
2021/12/08 10:20:34;;;;;;;125.82;56.85;;;14.50;52.30;;;;;;5037006;28;20025;-51
2021/12/08 10:23:15;;;;;;;99.07;50.00;;;14.70;52.50;;;;;;5036377;28;20041;-51
2021/12/08 10:26:03;;;;;;;114.28;57.33;;;15.60;48.50;;;;;;5030773;28;20029;-51
2021/12/08 10:28:40;;;;;;;106.60;57.22;;;14.70;50.30;;;;;;5037680;28;20067;-51
2021/12/08 10:31:30;;;;;;;78.50;40.30;;;15.00;49.20;;;;;;5044175;28;20102;-52
2021/12/08 10:36:53;;;;;;;61.90;31.67;;;15.60;46.20;;;;;;5053750;28;20051;-51
2021/12/08 10:39:25;;;;;;;62.92;33.78;;;15.10;45.00;;;;;;5048500;28;20248;-51
2021/12/08 10:41:54;;;;;;;71.32;40.20;;;15.30;45.30;;;;;;5045257;28;20571;-51
2021/12/08 10:44:26;;;;;;;72.32;38.75;;;15.00;45.50;;;;;;5056826;28;20032;-51
2021/12/08 10:46:58;;;;;;;64.85;36.92;;;15.10;45.80;;;;;;5047918;28;20528;-51
2021/12/08 10:54:45;;;;;;;92.97;47.53;;;15.60;43.60;;;;;;5037584;28;20112;-51
2021/12/08 10:57:32;;;;;;;91.82;45.22;;;14.80;45.10;;;;;;5047155;28;20061;-51
2021/12/08 11:00:09;;;;;;;67.30;33.20;;;13.70;45.80;;;;;;5056778;28;20024;-51
2021/12/08 11:03:02;;;;;;;60.28;31.05;;;14.70;47.70;;;;;;5038766;28;20049;-51
2021/12/08 11:05:38;;;;;;;56.30;27.88;;;15.20;44.30;;;;;;5027361;28;20048;-51
2021/12/08 11:08:19;;;;;;;38.80;23.75;;;15.50;42.00;;;;;;5030137;28;20017;-51
2021/12/08 11:10:50;;;;;;;29.23;16.15;;;16.00;42.10;;;;;;5045834;28;20030;-51
2021/12/08 11:13:18;;;;;;;;;;;15.90;40.50;;;;;;5037019;28;20048;-51
2021/12/08 11:15:46;;;;;;;32.42;16.02;;;15.50;39.90;;;;;;5040452;28;19913;-51
2021/12/08 11:18:21;;;;;;;50.13;21.35;;;16.20;41.20;;;;;;5041375;28;20028;-51
2021/12/08 11:20:59;;;;;;;25.35;15.57;;;15.80;40.60;;;;;;5056443;28;20539;-51
2021/12/08 11:23:45;;;;;;;37.42;19.13;;;15.40;40.80;;;;;;5056649;28;20033;-51
2021/12/08 11:26:43;;;;;;;30.77;18.45;;;16.00;39.50;;;;;;5038962;28;20509;-51
2021/12/08 11:29:23;;;;;;;36.47;18.50;;;16.30;40.00;;;;;;5029767;28;20107;-51
2021/12/08 11:31:54;;;;;;;44.38;19.42;;;17.00;39.60;;;;;;5047564;28;20039;-51
2021/12/08 11:34:34;;;;;;;28.05;12.40;;;17.00;38.60;;;;;;5043269;28;20076;-51
2021/12/08 11:37:06;;;;;;;24.37;13.43;;;17.10;38.90;;;;;;5055498;28;20033;-51
2021/12/08 11:39:35;;;;;;;36.40;16.15;;;16.70;38.60;;;;;;5055869;28;20041;-51
2021/12/08 11:42:06;;;;;;;23.70;11.35;;;16.60;38.70;;;;;;5050117;28;20102;-51
2021/12/08 11:44:36;;;;;;;22.98;11.30;;;16.30;38.20;;;;;;5026768;28;20070;-51
2021/12/08 11:47:11;;;;;;;21.53;10.10;;;16.10;40.00;;;;;;5032139;28;20035;-51
2021/12/08 11:49:49;;;;;;;17.65;10.10;;;16.70;38.10;;;;;;5035811;28;20065;-51
2021/12/08 11:52:20;;;;;;;20.80;10.80;;;15.80;38.50;;;;;;5022715;28;20095;-51
2021/12/08 11:55:20;;;;;;;21.15;11.05;;;15.50;40.70;;;;;;5035865;28;20036;-51
2021/12/08 11:57:52;;;;;;;28.30;12.55;;;14.70;43.00;;;;;;5013763;28;20509;-51
2021/12/08 12:00:24;;;;;;;19.25;12.23;;;15.40;42.30;;;;;;5035970;28;20025;-51
2021/12/08 12:03:07;;;;;;;21.80;11.68;;;15.50;41.30;;;;;;5030644;28;20068;-51
2021/12/08 12:05:39;;;;;;;18.30;10.30;;;15.50;42.30;;;;;;5035727;28;20060;-51
2021/12/08 12:08:09;;;;;;;24.23;11.32;;;15.90;41.00;;;;;;5032825;28;20475;-52
2021/12/08 12:10:39;;;;;;;27.17;12.65;;;16.20;42.40;;;;;;5044263;28;20029;-51
2021/12/08 12:13:08;;;;;;;10.93;6.82;;;16.40;39.00;;;;;;5016172;28;20058;-51
2021/12/08 12:15:36;;;;;;;25.83;11.23;;;16.30;38.10;;;;;;5040156;28;20049;-51
2021/12/08 12:18:03;;;;;;;22.65;10.75;;;16.20;38.30;;;;;;5034947;28;20026;-51
2021/12/08 12:20:41;;;;;;;22.42;10.95;;;17.10;39.60;;;;;;5035676;28;20471;-51
2021/12/08 12:23:13;;;;;;;20.65;10.07;;;16.00;38.70;;;;;;5034270;28;20025;-51
2021/12/08 12:25:51;;;;;;;19.90;10.15;;;16.40;40.50;;;;;;5035111;28;20021;-51
2021/12/08 12:28:41;;;;;;;21.75;8.82;;;16.00;39.60;;;;;;5035986;28;20456;-51
2021/12/08 12:31:25;;;;;;;40.17;11.25;;;15.90;39.80;;;;;;5034290;28;20467;-51
2021/12/08 12:33:53;;;;;;;21.67;10.35;;;16.10;40.20;;;;;;5035699;28;20026;-51
2021/12/08 12:36:32;;;;;;;39.22;11.65;;;16.10;39.50;;;;;;5040612;28;20552;-51
2021/12/08 12:39:17;;;;;;;21.23;8.68;;;16.30;39.60;;;;;;5015156;28;20029;-51
2021/12/08 12:41:44;;;;;;;29.50;11.02;;;15.60;39.50;;;;;;5014756;28;20030;-51
2021/12/08 12:44:25;;;;;;;25.38;9.35;;;16.20;42.30;;;;;;5015217;28;20037;-51
2021/12/08 12:47:08;;;;;;;15.27;8.60;;;16.40;38.90;;;;;;5015589;28;20053;-51
2021/12/08 12:49:36;;;;;;;29.75;11.10;;;16.10;38.80;;;;;;5015297;28;20056;-51
2021/12/08 12:52:08;;;;;;;22.80;10.45;;;15.10;40.60;;;;;;5031984;28;20017;-51
2021/12/08 12:54:39;;;;;;;24.08;9.48;;;14.70;40.60;;;;;;5036017;28;20056;-51
2021/12/08 12:57:07;;;;;;;24.35;10.85;;;14.30;43.00;;;;;;5045465;28;20033;-51
2021/12/08 12:59:52;;;;;;;26.92;14.07;;;14.50;43.30;;;;;;5025220;28;20470;-51
2021/12/08 13:02:27;;;;;;;24.92;11.18;;;14.60;43.50;;;;;;5028251;28;20033;-51
2021/12/08 13:05:08;;;;;;;37.33;14.88;;;14.40;43.70;;;;;;5033654;28;20634;-51
2021/12/08 13:07:39;;;;;;;38.40;17.70;;;14.10;44.60;;;;;;5062186;28;20034;-51
2021/12/08 13:10:19;;;;;;;32.10;16.00;;;14.20;45.90;;;;;;5035501;28;20025;-50
2021/12/08 13:12:46;;;;;;;24.63;12.43;;;14.00;47.20;;;;;;5035164;28;20083;-50
2021/12/08 13:15:21;;;;;;;32.58;15.40;;;14.10;47.20;;;;;;5033995;28;20077;-51
2021/12/08 13:18:04;;;;;;;20.60;10.70;;;14.20;45.90;;;;;;5029884;28;20030;-51
2021/12/08 13:20:34;;;;;;;30.25;10.57;;;14.40;46.30;;;;;;5032742;28;20033;-50
2021/12/08 13:23:03;;;;;;;29.23;10.97;;;14.40;45.40;;;;;;5030929;28;20028;-51
2021/12/08 13:25:58;;;;;;;30.65;13.15;;;14.50;45.00;;;;;;5026256;28;20022;-51
2021/12/08 13:28:25;;;;;;;;;;;14.40;45.80;;;;;;5034842;28;20045;-50
2021/12/08 13:30:53;;;;;;;28.33;13.00;;;15.10;46.10;;;;;;5034685;28;19909;-50